North Myrtle Beach, South Carolina
Current Conditions -  °F | °C
As of 11:14 AM on Thursday 30 Oct 2014 (Local Time) from KCRE Reporting Station
Overcast Overcast  
Wind Chill: 63°   Ceiling: 2000
Heat Index: 63°   Visibility: 10mi
Dew Point: 55°   Wind: 10mph
Humidity: 75%   Direction: 40°NE
Pressure: 30"   Gusts: NA
Location:  33.83°N, 78.68°W
Report Text: KCRE 301514Z 04009KT 10SM SCT006 OVC020 17/13 A3000 RMK AO1 T01720128
Loading
Personal Weather Stations






























Interactive Weather Map New forecast layout! Learn more

10-Day Weather Forecast

Advertisements
Track Severe Weather on mobile